Time;durP1;ratioP1;P1;durP2;ratioP2;P2;SDS_P1;SDS_P2;PMS_P1;PMS_P2;Temp;Humidity;BMP_temperature;BMP_pressure;BME280_temperature;BME280_humidity;BME280_pressure;Samples;Min_cycle;Max_cycle;Signal;HPM_P1;HPM_P2
2023/10/20 00:02:27;;;;;;;13.50;3.60;;;;;;;22.00;57.91;100880.68;106371;1268;25344;-61
2023/10/20 00:04:55;;;;;;;14.00;3.40;;;;;;;22.10;57.38;100882.88;106815;1263;25355;-61
2023/10/20 00:07:22;;;;;;;14.30;4.30;;;;;;;22.12;57.21;100880.45;106728;1262;25434;-60
2023/10/20 00:09:53;;;;;;;17.00;4.30;;;;;;;22.13;57.16;100882.70;106713;1262;24219;-60
2023/10/20 00:12:20;;;;;;;13.80;3.80;;;;;;;22.12;57.00;100886.08;106308;1280;25368;-60
2023/10/20 00:14:47;;;;;;;12.90;4.10;;;;;;;22.01;57.07;100890.52;106777;1271;25465;-60
2023/10/20 00:17:14;;;;;;;16.10;4.50;;;;;;;22.08;56.62;100884.96;106705;1262;25296;-60
2023/10/20 00:19:41;;;;;;;9.90;2.90;;;;;;;22.11;56.54;100886.85;106846;1262;25363;-61
2023/10/20 00:22:08;;;;;;;11.60;3.60;;;;;;;22.12;56.33;100884.33;106811;1262;25358;-61
2023/10/20 00:24:35;;;;;;;13.60;4.30;;;;;;;22.12;56.23;100888.54;106692;1262;25423;-60
2023/10/20 00:27:03;;;;;;;15.60;4.20;;;;;;;22.13;56.34;100884.44;106706;1263;25441;-61
2023/10/20 00:29:30;;;;;;;13.30;4.30;;;;;;;22.14;56.46;100883.84;106486;1262;356751;-60
2023/10/20 00:31:58;;;;;;;12.90;4.50;;;;;;;22.14;55.96;100879.96;106852;1262;23157;-61
2023/10/20 00:34:25;;;;;;;9.10;2.80;;;;;;;22.13;55.80;100875.09;106404;1277;25373;-61
2023/10/20 00:36:52;;;;;;;13.90;4.30;;;;;;;22.12;55.62;100876.20;106712;1262;26201;-60
2023/10/20 00:39:19;;;;;;;12.10;3.50;;;;;;;22.12;55.52;100872.13;106768;1275;25344;-61
2023/10/20 00:41:46;;;;;;;15.00;3.70;;;;;;;22.11;55.47;100867.59;106800;1262;25435;-61
2023/10/20 00:44:14;;;;;;;14.90;3.70;;;;;;;22.12;55.74;100865.58;106778;1262;25338;-60
2023/10/20 00:46:43;;;;;;;10.60;3.50;;;;;;;22.12;55.74;100865.05;106730;1262;25509;-61
2023/10/20 00:49:11;;;;;;;17.10;4.40;;;;;;;22.12;55.91;100864.17;106744;1265;25344;-60
2023/10/20 00:51:39;;;;;;;8.80;3.30;;;;;;;22.12;56.14;100863.31;106822;1262;22549;-60
2023/10/20 00:54:06;;;;;;;15.20;3.40;;;;;;;22.11;56.21;100866.54;106663;1261;22702;-60
2023/10/20 00:56:33;;;;;;;15.30;4.00;;;;;;;22.11;56.09;100861.40;106343;1262;22538;-60
2023/10/20 00:59:00;;;;;;;12.60;3.70;;;;;;;22.11;56.02;100859.31;106404;1262;25438;-61
2023/10/20 01:01:27;;;;;;;8.30;3.60;;;;;;;22.11;55.85;100860.75;106439;1269;23932;-60
2023/10/20 01:03:54;;;;;;;12.70;3.90;;;;;;;22.10;55.79;100856.87;106454;1266;25369;-60
2023/10/20 01:06:22;;;;;;;10.30;3.40;;;;;;;22.10;55.95;100855.64;106430;1262;22554;-61
2023/10/20 01:08:55;;;;;;;12.80;3.90;;;;;;;22.11;56.17;100853.16;106383;1262;25347;-61
2023/10/20 01:11:24;;;;;;;15.40;4.50;;;;;;;22.11;56.38;100848.89;106627;1259;22634;-61
2023/10/20 01:13:51;;;;;;;13.50;4.30;;;;;;;22.12;56.48;100845.48;106481;1268;25306;-61
2023/10/20 01:16:21;;;;;;;18.90;4.90;;;;;;;22.11;56.47;100840.21;106392;1262;22535;-60
2023/10/20 01:18:48;;;;;;;16.50;4.50;;;;;;;22.11;56.26;100827.16;106520;1272;25372;-60
2023/10/20 01:21:15;;;;;;;12.60;4.20;;;;;;;22.11;56.33;100819.23;106091;1274;25922;-60
2023/10/20 01:23:42;;;;;;;19.10;4.70;;;;;;;22.11;56.40;100811.99;106623;1272;25337;-61
2023/10/20 01:26:09;;;;;;;14.20;3.80;;;;;;;22.10;56.66;100801.95;106440;1271;23408;-61
2023/10/20 01:28:37;;;;;;;10.40;4.40;;;;;;;22.09;56.64;100802.68;106363;1280;25365;-59
2023/10/20 01:31:04;;;;;;;10.70;4.00;;;;;;;22.09;56.71;100794.41;106746;1267;24362;-60
2023/10/20 01:33:31;;;;;;;15.40;3.90;;;;;;;22.08;56.75;100796.25;106917;1269;25347;-61
2023/10/20 01:35:58;;;;;;;11.80;3.60;;;;;;;22.08;56.85;100800.68;106663;1263;25410;-61
2023/10/20 01:38:25;;;;;;;8.90;3.70;;;;;;;22.08;57.07;100796.24;106756;1263;25368;-61
2023/10/20 01:40:52;;;;;;;11.20;4.20;;;;;;;22.08;57.09;100799.45;106685;1262;25379;-61
2023/10/20 01:43:19;;;;;;;13.20;4.50;;;;;;;22.08;57.16;100801.52;106743;1261;25409;-61
2023/10/20 01:45:46;;;;;;;12.70;4.20;;;;;;;22.09;57.07;100802.75;106404;1277;25361;-61
2023/10/20 01:48:13;;;;;;;19.70;4.70;;;;;;;22.09;57.18;100795.00;106869;1272;25546;-60
2023/10/20 01:50:40;;;;;;;14.00;4.20;;;;;;;22.09;57.18;100785.60;106687;1272;25348;-61
2023/10/20 01:53:07;;;;;;;7.30;3.30;;;;;;;22.08;57.10;100783.88;106767;1262;24667;-61
2023/10/20 01:55:34;;;;;;;13.10;4.80;;;;;;;22.08;57.15;100782.30;106727;1261;22570;-60
2023/10/20 01:58:01;;;;;;;10.60;4.50;;;;;;;22.08;57.24;100780.92;106347;1280;25477;-60
2023/10/20 02:00:29;;;;;;;13.90;5.00;;;;;;;22.08;57.17;100778.96;106334;1272;25363;-60
2023/10/20 02:02:56;;;;;;;13.90;4.50;;;;;;;22.08;57.20;100782.13;106772;1262;23512;-61
2023/10/20 02:05:23;;;;;;;15.60;4.20;;;;;;;22.08;57.15;100778.97;106740;1262;23390;-61
2023/10/20 02:07:50;;;;;;;12.60;4.50;;;;;;;22.08;57.30;100773.30;106714;1265;22762;-61
2023/10/20 02:10:17;;;;;;;16.90;5.10;;;;;;;22.08;57.37;100767.98;106366;1278;25361;-61
2023/10/20 02:12:44;;;;;;;13.60;4.50;;;;;;;22.08;57.31;100769.39;106533;1266;25344;-61
2023/10/20 02:15:11;;;;;;;10.60;3.80;;;;;;;22.09;57.31;100772.52;106712;1263;24079;-60
2023/10/20 02:17:38;;;;;;;16.80;5.50;;;;;;;22.09;57.46;100774.77;106742;1262;25373;-62
2023/10/20 02:20:07;;;;;;;10.40;3.80;;;;;;;22.09;57.40;100770.04;106396;1265;25504;-61
2023/10/20 02:22:34;;;;;;;14.90;4.40;;;;;;;22.08;57.44;100762.30;106592;1263;24372;-61
2023/10/20 02:25:00;;;;;;;15.90;5.40;;;;;;;22.09;57.57;100763.02;106797;1261;25358;-60
2023/10/20 02:27:28;;;;;;;12.80;4.20;;;;;;;22.09;57.64;100755.56;106650;1273;24309;-60
2023/10/20 02:29:58;;;;;;;17.90;4.90;;;;;;;22.09;57.62;100758.90;106843;1257;22541;-61
2023/10/20 02:32:24;;;;;;;11.90;4.40;;;;;;;22.09;57.62;100755.55;106396;1266;25480;-60
2023/10/20 02:34:52;;;;;;;9.90;3.70;;;;;;;22.10;57.78;100754.98;106593;1262;23244;-61
2023/10/20 02:37:19;;;;;;;15.60;5.70;;;;;;;22.09;57.87;100756.04;106264;1272;25344;-62
2023/10/20 02:39:46;;;;;;;12.00;4.20;;;;;;;22.10;57.97;100756.01;106224;1273;22538;-61
2023/10/20 02:42:13;;;;;;;15.40;4.10;;;;;;;22.11;57.89;100748.85;106045;1268;23885;-61
2023/10/20 02:44:40;;;;;;;12.70;4.20;;;;;;;22.11;57.85;100749.73;106222;1267;25423;-61
2023/10/20 02:47:08;;;;;;;8.70;4.00;;;;;;;22.12;58.11;100753.20;106380;1259;24216;-61
2023/10/20 02:49:35;;;;;;;14.30;4.40;;;;;;;22.14;58.09;100751.67;106357;1263;22629;-61
2023/10/20 02:52:02;;;;;;;15.20;4.40;;;;;;;22.14;58.09;100744.60;106310;1263;25369;-60
2023/10/20 02:54:29;;;;;;;12.70;4.40;;;;;;;22.16;58.21;100748.55;106288;1265;25381;-60
2023/10/20 02:56:57;;;;;;;12.50;4.60;;;;;;;22.16;58.18;100749.23;106701;1270;25347;-60
2023/10/20 02:59:24;;;;;;;15.50;4.50;;;;;;;22.17;58.06;100749.00;106751;1262;25382;-61
2023/10/20 03:01:54;;;;;;;15.00;4.10;;;;;;;22.17;57.91;100751.61;105929;1272;1002855;-60
2023/10/20 03:04:21;;;;;;;14.50;4.30;;;;;;;22.18;57.96;100752.80;106828;1269;25344;-61
2023/10/20 03:06:48;;;;;;;16.90;5.30;;;;;;;22.18;57.88;100748.73;106782;1271;23208;-61
2023/10/20 03:09:15;;;;;;;11.50;4.50;;;;;;;22.19;57.86;100749.58;105660;1271;1002847;-61
2023/10/20 03:11:43;;;;;;;17.60;5.80;;;;;;;22.19;57.77;100745.81;106680;1267;25376;-61
2023/10/20 03:14:11;;;;;;;18.00;5.80;;;;;;;22.20;57.75;100744.16;106715;1271;25392;-61
2023/10/20 03:16:42;;;;;;;13.10;4.70;;;;;;;22.21;57.76;100745.52;106722;1273;24216;-61
2023/10/20 03:19:11;;;;;;;14.70;4.90;;;;;;;22.21;57.76;100743.02;106346;1268;25421;-61
2023/10/20 03:21:39;;;;;;;16.80;5.30;;;;;;;22.21;57.71;100739.83;106668;1264;25504;-60
2023/10/20 03:24:06;;;;;;;16.20;5.00;;;;;;;22.21;57.71;100738.77;106755;1263;22546;-60
2023/10/20 03:26:33;;;;;;;16.80;4.90;;;;;;;22.23;57.81;100735.49;106741;1263;25508;-61
2023/10/20 03:29:01;;;;;;;15.60;4.90;;;;;;;22.23;57.69;100733.17;106522;1277;25358;-61
2023/10/20 03:31:28;;;;;;;15.80;6.00;;;;;;;22.23;57.65;100729.10;106514;1264;25424;-61
2023/10/20 03:33:57;;;;;;;12.50;4.30;;;;;;;22.24;57.79;100723.01;106763;1260;25426;-61
2023/10/20 03:36:24;;;;;;;18.30;5.30;;;;;;;22.26;57.89;100724.85;106558;1275;25416;-61
2023/10/20 03:38:50;;;;;;;19.60;5.50;;;;;;;22.25;57.90;100725.94;106626;1271;25346;-61
2023/10/20 03:41:17;;;;;;;16.10;6.10;;;;;;;22.25;57.79;100721.69;106422;1271;25495;-61
2023/10/20 03:43:45;;;;;;;19.00;5.90;;;;;;;22.26;57.89;100719.02;106745;1273;25347;-61
2023/10/20 03:46:13;;;;;;;15.50;5.30;;;;;;;22.26;57.99;100721.46;106369;1277;25427;-61
2023/10/20 03:48:41;;;;;;;16.00;5.40;;;;;;;22.27;57.81;100725.31;106835;1270;25347;-61
2023/10/20 03:51:11;;;;;;;17.40;4.60;;;;;;;22.27;57.63;100724.24;106755;1258;25347;-61
2023/10/20 03:53:57;;;;;;;20.10;5.20;;;;;;;22.27;57.64;100728.67;106737;1257;22635;-61
2023/10/20 03:56:24;;;;;;;16.70;4.40;;;;;;;22.28;57.67;100732.52;106709;1267;25580;-61
2023/10/20 03:58:51;;;;;;;13.10;4.60;;;;;;;22.28;57.45;100738.29;106843;1263;25447;-61
2023/10/20 04:01:19;;;;;;;21.20;6.00;;;;;;;22.28;57.06;100733.35;106452;1273;25383;-60
2023/10/20 04:03:50;;;;;;;14.60;4.80;;;;;;;22.28;56.92;100730.86;106787;1263;25371;-61
2023/10/20 04:06:18;;;;;;;;;;;;;;;22.28;56.66;100733.52;105287;1264;1003027;-61
2023/10/20 04:08:45;;;;;;;16.40;4.70;;;;;;;22.27;56.41;100733.95;106703;1261;25365;-61
2023/10/20 04:11:12;;;;;;;11.80;4.40;;;;;;;22.27;56.24;100733.81;106386;1265;25375;-61
2023/10/20 04:13:40;;;;;;;13.70;4.00;;;;;;;22.30;55.75;100736.23;106508;1264;25401;-60
2023/10/20 04:16:14;;;;;;;11.30;4.40;;;;;;;22.27;55.81;100742.07;106283;1264;25333;-60
2023/10/20 04:18:42;;;;;;;15.30;4.40;;;;;;;22.28;56.03;100747.49;106242;1262;25377;-60
2023/10/20 04:21:13;;;;;;;16.80;4.60;;;;;;;22.32;56.12;100744.38;106268;1267;24305;-61
2023/10/20 04:23:40;;;;;;;13.40;4.60;;;;;;;22.29;56.32;100740.34;106427;1263;25348;-60
2023/10/20 04:26:21;;;;;;;12.30;4.50;;;;;;;22.29;56.32;100741.97;106515;1260;25347;-59
2023/10/20 04:29:02;;;;;;;11.10;4.30;;;;;;;22.29;56.27;100740.89;106812;1270;25376;-59
2023/10/20 04:53:45;;;;;;;16.10;4.60;;;;;;;22.36;56.45;100742.30;106721;1260;22648;-60
2023/10/20 04:58:55;;;;;;;14.40;4.60;;;;;;;22.36;56.40;100726.77;106793;1262;25467;-59
2023/10/20 05:01:39;;;;;;;14.50;4.90;;;;;;;22.37;56.35;100715.71;106869;1267;25361;-60
2023/10/20 05:04:22;;;;;;;12.20;4.30;;;;;;;22.38;56.35;100702.08;106507;1260;25358;-59
2023/10/20 05:07:06;;;;;;;16.30;4.60;;;;;;;22.39;56.37;100704.64;106850;1257;23684;-59
2023/10/20 05:09:40;;;;;;;14.80;5.10;;;;;;;22.40;56.37;100712.89;106796;1264;25375;-59
2023/10/20 05:12:08;;;;;;;16.60;5.20;;;;;;;22.41;56.36;100719.19;106804;1260;25385;-60
2023/10/20 05:14:35;;;;;;;15.70;5.20;;;;;;;22.41;56.43;100725.66;106398;1267;25365;-59
2023/10/20 05:17:04;;;;;;;19.10;5.30;;;;;;;22.43;56.34;100730.19;106591;1271;25424;-60
2023/10/20 05:19:35;;;;;;;14.80;4.20;;;;;;;22.45;56.38;100730.77;106800;1261;23295;-59
2023/10/20 05:22:03;;;;;;;19.70;5.90;;;;;;;22.45;56.32;100730.33;106733;1263;25467;-60
2023/10/20 05:24:31;;;;;;;17.00;5.10;;;;;;;22.47;56.33;100728.64;106524;1280;25383;-59
2023/10/20 05:26:58;;;;;;;14.80;5.40;;;;;;;22.49;56.25;100723.55;106586;1268;24217;-59
2023/10/20 05:29:26;;;;;;;17.50;5.10;;;;;;;22.51;56.14;100723.58;106372;1267;25344;-59
2023/10/20 05:31:53;;;;;;;13.90;4.80;;;;;;;22.53;56.31;100719.20;106748;1273;25535;-60
2023/10/20 05:34:20;;;;;;;16.30;5.50;;;;;;;22.55;56.44;100721.67;106752;1257;25386;-59
2023/10/20 05:36:47;;;;;;;15.60;5.30;;;;;;;22.57;56.56;100722.98;106819;1260;25369;-59
2023/10/20 05:39:14;;;;;;;16.50;5.50;;;;;;;22.53;56.65;100719.15;106775;1261;25367;-59
2023/10/20 05:41:43;;;;;;;15.60;6.20;;;;;;;22.62;56.41;100723.67;106625;1260;25371;-59
2023/10/20 05:44:12;;;;;;;19.20;6.40;;;;;;;22.66;56.51;100714.91;106327;1261;25350;-59
2023/10/20 05:46:40;;;;;;;17.50;5.60;;;;;;;22.69;56.55;100707.65;106462;1264;25377;-60
2023/10/20 05:49:08;;;;;;;16.00;6.20;;;;;;;22.72;56.69;100705.98;106654;1264;25497;-60
2023/10/20 05:51:35;;;;;;;14.60;5.80;;;;;;;22.75;56.73;100703.88;106423;1264;25425;-61
2023/10/20 05:54:03;;;;;;;18.30;6.00;;;;;;;22.77;56.68;100703.71;106217;1263;25362;-60
2023/10/20 05:56:30;;;;;;;14.70;6.50;;;;;;;22.80;56.81;100701.02;106494;1264;25347;-60
2023/10/20 05:58:57;;;;;;;20.00;7.90;;;;;;;22.80;56.75;100698.33;106472;1260;25414;-60
2023/10/20 06:01:24;;;;;;;13.30;6.70;;;;;;;22.83;56.82;100699.53;106352;1262;25358;-60
2023/10/20 06:03:51;;;;;;;23.80;7.60;;;;;;;22.85;56.95;100694.95;106427;1264;25336;-60
2023/10/20 06:06:19;;;;;;;19.60;8.40;;;;;;;22.89;57.01;100692.34;106300;1280;25506;-62
2023/10/20 06:08:46;;;;;;;22.00;9.40;;;;;;;22.93;57.02;100687.09;106687;1271;25470;-60
2023/10/20 06:11:13;;;;;;;18.50;8.20;;;;;;;22.97;56.86;100689.14;106722;1261;25366;-60
2023/10/20 06:13:40;;;;;;;20.00;8.50;;;;;;;23.01;56.92;100687.59;106833;1257;25344;-61
2023/10/20 06:16:08;;;;;;;19.70;9.90;;;;;;;23.04;56.81;100689.64;106713;1261;25336;-60
2023/10/20 06:18:37;;;;;;;17.10;8.30;;;;;;;23.13;56.84;100687.17;106887;1258;24414;-60
2023/10/20 06:21:05;;;;;;;22.00;8.50;;;;;;;23.13;56.76;100684.04;106707;1259;25391;-60
2023/10/20 06:23:32;;;;;;;23.40;8.80;;;;;;;23.14;56.73;100688.04;106617;1258;24508;-60
2023/10/20 06:25:59;;;;;;;20.90;8.00;;;;;;;23.16;56.71;100690.66;106741;1273;25501;-61
2023/10/20 06:28:26;;;;;;;21.00;8.50;;;;;;;23.18;56.55;100680.95;106786;1264;25329;-60
2023/10/20 06:30:54;;;;;;;16.10;8.40;;;;;;;23.21;56.65;100676.16;106869;1263;25358;-61
2023/10/20 06:33:22;;;;;;;21.10;8.00;;;;;;;23.23;56.82;100667.14;106861;1258;25412;-61
2023/10/20 06:35:52;;;;;;;16.90;7.60;;;;;;;23.26;56.90;100664.60;106747;1265;22594;-61
2023/10/20 06:41:08;;;;;;;25.40;8.00;;;;;;;23.34;57.00;100670.95;106803;1264;25376;-60
2023/10/20 06:43:35;;;;;;;17.70;9.00;;;;;;;23.38;57.01;100672.36;106280;1280;25412;-60
2023/10/20 06:46:03;;;;;;;21.40;8.20;;;;;;;23.40;57.00;100676.43;106785;1258;25434;-60
2023/10/20 06:48:30;;;;;;;17.00;7.80;;;;;;;23.43;56.97;100681.89;106622;1270;25425;-60
2023/10/20 06:50:57;;;;;;;19.30;7.80;;;;;;;23.47;56.99;100683.36;106721;1262;25500;-61
2023/10/20 06:53:25;;;;;;;19.60;7.10;;;;;;;23.50;56.63;100680.85;106340;1265;22537;-60
2023/10/20 06:55:52;;;;;;;19.80;7.60;;;;;;;23.51;56.58;100670.34;106393;1276;25347;-60
2023/10/20 06:58:39;;;;;;;17.70;7.80;;;;;;;23.50;56.84;100670.73;106730;1262;25347;-60
2023/10/20 07:01:06;;;;;;;17.60;7.20;;;;;;;23.53;56.93;100662.73;106625;1267;25354;-60
2023/10/20 07:03:33;;;;;;;22.00;8.20;;;;;;;23.55;56.81;100662.20;106766;1259;25395;-60
2023/10/20 07:06:00;;;;;;;18.70;7.30;;;;;;;23.56;56.61;100665.14;106590;1260;25320;-59
2023/10/20 07:08:28;;;;;;;20.80;8.20;;;;;;;23.57;56.91;100667.93;106799;1262;25371;-60
2023/10/20 07:11:02;;;;;;;16.40;7.70;;;;;;;23.56;57.08;100672.55;106515;1264;25375;-61
2023/10/20 07:13:29;;;;;;;20.90;7.50;;;;;;;23.50;57.45;100675.76;106771;1260;22620;-61
2023/10/20 07:15:57;;;;;;;20.30;7.50;;;;;;;23.49;57.40;100673.52;106535;1279;25465;-60
2023/10/20 07:18:24;;;;;;;14.70;6.60;;;;;;;23.50;57.59;100670.06;106370;1261;24231;-60
2023/10/20 07:20:52;;;;;;;21.70;8.30;;;;;;;23.53;57.40;100666.25;106676;1262;25372;-60
2023/10/20 07:23:23;;;;;;;15.30;6.90;;;;;;;23.64;56.96;100651.98;106669;1265;27156;-60
2023/10/20 07:25:50;;;;;;;18.40;7.00;;;;;;;23.67;56.79;100649.41;106640;1260;25508;-60
2023/10/20 07:28:17;;;;;;;19.40;6.50;;;;;;;23.68;56.99;100652.84;106240;1270;25368;-59
2023/10/20 07:30:45;;;;;;;12.30;6.10;;;;;;;23.70;56.89;100650.96;106281;1270;25441;-61
2023/10/20 07:33:12;;;;;;;16.90;6.40;;;;;;;23.72;56.66;100652.23;106245;1261;22534;-60
2023/10/20 07:35:39;;;;;;;22.40;6.80;;;;;;;23.72;56.64;100654.46;106463;1258;25368;-60
2023/10/20 07:38:07;;;;;;;15.90;6.20;;;;;;;23.73;56.74;100653.68;106732;1258;25362;-59
2023/10/20 07:40:35;;;;;;;14.60;6.40;;;;;;;23.76;56.65;100654.21;106321;1273;25386;-60
2023/10/20 07:43:06;;;;;;;11.70;6.10;;;;;;;23.77;56.63;100657.61;106751;1272;25419;-60
2023/10/20 07:45:42;;;;;;;16.30;6.70;;;;;;;23.78;56.70;100655.10;106743;1265;22533;-60
2023/10/20 07:48:10;;;;;;;13.20;5.70;;;;;;;23.79;56.48;100645.83;106715;1272;25425;-60
2023/10/20 07:50:38;;;;;;;18.50;7.10;;;;;;;23.79;56.38;100647.73;106325;1262;25507;-60
2023/10/20 07:53:05;;;;;;;26.10;6.90;;;;;;;23.80;56.50;100641.85;106696;1260;25255;-61
2023/10/20 07:55:32;;;;;;;13.20;5.60;;;;;;;23.81;56.35;100639.06;106688;1273;25416;-60
2023/10/20 07:58:00;;;;;;;16.00;6.90;;;;;;;23.83;56.32;100640.34;106710;1260;25475;-60
2023/10/20 08:00:29;;;;;;;15.10;6.20;;;;;;;23.83;56.33;100636.59;106617;1274;25546;-60
2023/10/20 08:02:56;;;;;;;17.40;7.10;;;;;;;23.86;56.21;100639.95;106814;1265;24369;-60
2023/10/20 08:05:24;;;;;;;18.80;7.00;;;;;;;23.86;56.19;100639.58;106676;1263;25357;-61
2023/10/20 08:07:53;;;;;;;16.30;6.50;;;;;;;23.87;56.41;100638.07;106706;1273;22545;-64
2023/10/20 08:10:23;;;;;;;11.10;5.60;;;;;;;23.89;56.38;100642.55;106799;1258;22545;-62
2023/10/20 08:12:50;;;;;;;15.30;5.80;;;;;;;23.90;56.19;100647.01;106585;1275;25510;-61
2023/10/20 08:15:17;;;;;;;12.00;6.10;;;;;;;23.94;56.13;100652.75;106328;1261;25352;-60
2023/10/20 08:17:46;;;;;;;14.70;6.20;;;;;;;23.92;55.88;100653.05;106344;1261;25403;-61
2023/10/20 08:20:13;;;;;;;16.70;6.30;;;;;;;23.99;55.83;100657.34;106653;1264;25375;-61
2023/10/20 08:22:41;;;;;;;17.90;5.80;;;;;;;24.02;55.77;100658.11;106581;1275;22541;-61
2023/10/20 08:25:08;;;;;;;14.60;6.30;;;;;;;24.05;55.82;100657.38;106880;1273;25399;-60
2023/10/20 08:27:36;;;;;;;19.10;6.00;;;;;;;24.10;55.74;100657.55;106334;1261;25435;-61
2023/10/20 08:30:04;;;;;;;18.60;7.00;;;;;;;24.13;55.69;100659.21;106149;1270;24216;-61
2023/10/20 08:32:32;;;;;;;20.50;6.00;;;;;;;24.18;55.75;100657.95;106493;1275;22564;-60
2023/10/20 08:35:00;;;;;;;16.30;6.30;;;;;;;24.22;55.56;100649.66;106357;1264;25438;-61
2023/10/20 08:37:28;;;;;;;15.60;6.50;;;;;;;24.26;55.60;100646.13;106673;1261;24226;-61
2023/10/20 08:39:55;;;;;;;24.70;7.30;;;;;;;24.31;55.60;100645.05;106793;1272;25375;-61
2023/10/20 08:42:22;;;;;;;17.90;6.50;;;;;;;24.35;55.48;100647.20;106586;1259;25386;-63
2023/10/20 08:44:50;;;;;;;13.20;5.50;;;;;;;24.39;55.51;100648.65;106704;1269;22522;-60
2023/10/20 08:47:17;;;;;;;14.00;5.40;;;;;;;24.42;55.05;100647.55;106705;1276;25361;-60
2023/10/20 08:49:45;;;;;;;19.70;7.00;;;;;;;24.42;54.84;100647.87;106461;1277;25358;-60
2023/10/20 08:52:13;;;;;;;22.40;6.50;;;;;;;24.41;54.87;100648.15;106669;1276;24075;-61
2023/10/20 08:54:41;;;;;;;13.40;6.60;;;;;;;24.39;54.98;100647.95;106664;1261;25463;-60
2023/10/20 08:57:08;;;;;;;11.10;5.60;;;;;;;24.34;55.11;100650.63;106798;1263;25428;-60
2023/10/20 08:59:38;;;;;;;17.50;7.40;;;;;;;24.42;54.94;100650.66;106705;1262;25399;-61
2023/10/20 09:02:07;;;;;;;20.50;6.40;;;;;;;24.63;54.61;100650.92;106391;1272;25435;-60
2023/10/20 09:04:34;;;;;;;17.50;6.90;;;;;;;24.67;54.36;100646.50;106346;1270;22659;-60
2023/10/20 09:07:12;;;;;;;21.70;6.90;;;;;;;24.65;54.52;100650.06;106343;1270;25437;-60
2023/10/20 09:09:39;;;;;;;15.20;6.70;;;;;;;24.72;54.35;100656.73;106371;1273;24215;-60
2023/10/20 09:12:11;;;;;;;15.80;6.00;;;;;;;24.72;54.09;100661.02;106398;1273;22534;-61
2023/10/20 09:14:39;;;;;;;12.30;5.60;;;;;;;24.53;54.71;100655.80;106417;1263;25434;-60
2023/10/20 09:17:08;;;;;;;21.20;7.40;;;;;;;24.51;54.91;100648.88;106289;1272;24397;-61
2023/10/20 09:19:35;;;;;;;14.60;6.30;;;;;;;24.51;55.04;100642.67;106627;1272;22729;-60
2023/10/20 09:22:03;;;;;;;13.10;5.50;;;;;;;24.52;55.00;100644.71;106645;1277;25490;-59
2023/10/20 09:24:31;;;;;;;16.10;6.00;;;;;;;24.53;54.89;100650.13;106745;1262;25358;-60
2023/10/20 09:26:59;;;;;;;21.00;6.80;;;;;;;24.52;54.84;100641.68;106684;1261;25273;-60
2023/10/20 09:29:30;;;;;;;16.40;6.40;;;;;;;24.49;54.99;100638.26;106411;1276;23143;-60
2023/10/20 09:31:59;;;;;;;20.30;7.30;;;;;;;24.55;54.94;100632.62;106533;1270;25344;-60
2023/10/20 09:34:26;;;;;;;19.40;6.90;;;;;;;24.60;54.94;100626.31;106682;1274;25476;-60
2023/10/20 09:36:56;;;;;;;14.40;6.30;;;;;;;24.63;55.00;100624.28;106534;1264;22552;-60
2023/10/20 09:39:37;;;;;;;14.80;6.80;;;;;;;24.67;54.71;100624.31;106595;1275;25508;-60
2023/10/20 09:42:05;;;;;;;16.90;6.90;;;;;;;24.69;54.75;100616.53;106416;1276;25351;-61
2023/10/20 09:44:38;;;;;;;18.60;6.10;;;;;;;24.72;54.81;100610.45;106741;1259;25357;-60
2023/10/20 09:47:10;;;;;;;20.30;7.00;;;;;;;24.75;54.69;100605.91;106676;1258;24411;-60
2023/10/20 09:49:39;;;;;;;;;;;;;;;24.78;54.88;100594.88;106758;1260;22519;-60
2023/10/20 09:52:06;;;;;;;13.90;6.00;;;;;;;24.80;54.83;100589.37;106738;1262;25347;-60
2023/10/20 09:54:33;;;;;;;17.00;6.30;;;;;;;24.81;54.87;100584.54;106446;1272;25376;-60
2023/10/20 09:57:00;;;;;;;20.10;5.90;;;;;;;24.91;54.49;100590.43;106575;1279;22543;-60
2023/10/20 09:59:28;;;;;;;14.50;5.90;;;;;;;25.11;53.90;100588.55;106611;1279;25379;-60
2023/10/20 10:01:56;;;;;;;14.30;6.30;;;;;;;25.14;53.92;100584.69;106677;1259;25358;-60
2023/10/20 10:04:29;;;;;;;15.20;6.70;;;;;;;25.18;53.76;100582.39;106710;1265;25425;-60
2023/10/20 10:06:59;;;;;;;16.20;6.30;;;;;;;25.21;53.78;100586.25;106836;1258;22570;-60
2023/10/20 10:09:52;;;;;;;15.70;6.80;;;;;;;25.22;53.59;100585.65;106450;1276;25507;-60
2023/10/20 10:12:20;;;;;;;13.40;6.80;;;;;;;25.20;53.76;100587.38;106319;1277;25415;-60
2023/10/20 10:15:05;;;;;;;18.70;6.90;;;;;;;25.12;54.00;100579.75;106758;1269;25517;-60
2023/10/20 10:17:44;;;;;;;17.60;6.50;;;;;;;25.17;54.01;100577.01;106798;1257;25383;-60
2023/10/20 10:20:27;;;;;;;15.30;5.90;;;;;;;25.26;53.71;100569.66;106749;1261;23144;-60
2023/10/20 10:23:01;;;;;;;18.00;6.70;;;;;;;25.31;53.67;100570.29;106680;1274;25395;-60
2023/10/20 10:25:45;;;;;;;20.50;7.30;;;;;;;25.33;53.65;100569.57;106624;1272;25513;-60
2023/10/20 10:28:16;;;;;;;18.60;7.00;;;;;;;25.37;53.66;100570.30;106607;1278;25497;-60
2023/10/20 10:30:48;;;;;;;17.20;6.50;;;;;;;25.39;53.52;100567.64;106728;1256;22537;-61
2023/10/20 10:33:20;;;;;;;14.80;6.20;;;;;;;25.40;53.58;100565.59;106568;1270;25441;-60
2023/10/20 10:35:48;;;;;;;12.60;5.90;;;;;;;25.41;53.42;100559.96;106579;1258;25358;-61
2023/10/20 10:38:21;;;;;;;14.40;6.70;;;;;;;25.43;53.45;100556.69;106207;1276;25531;-60
2023/10/20 10:40:52;;;;;;;17.60;6.90;;;;;;;25.44;53.56;100550.69;106090;1279;25448;-60
2023/10/20 10:43:21;;;;;;;19.10;7.00;;;;;;;25.44;53.40;100547.33;106362;1259;25420;-60
2023/10/20 10:45:52;;;;;;;19.70;7.10;;;;;;;25.45;53.46;100541.36;106638;1272;25471;-60
2023/10/20 10:48:25;;;;;;;15.50;7.10;;;;;;;25.45;53.51;100532.51;106742;1272;25381;-60
2023/10/20 10:50:52;;;;;;;;;;;;;;;25.45;53.45;100538.50;106401;1261;25338;-61
2023/10/20 10:53:19;;;;;;;20.50;6.60;;;;;;;25.44;53.59;100540.19;106695;1259;25413;-61
2023/10/20 10:55:47;;;;;;;19.00;7.20;;;;;;;25.37;53.77;100539.43;106722;1269;25423;-60
2023/10/20 10:58:14;;;;;;;19.30;7.20;;;;;;;25.28;54.11;100538.60;106649;1268;24420;-60
2023/10/20 11:00:43;;;;;;;18.40;7.40;;;;;;;25.41;53.96;100534.61;106643;1264;25500;-60
2023/10/20 11:03:11;;;;;;;16.70;7.70;;;;;;;25.22;54.48;100532.86;106738;1265;22541;-61
2023/10/20 11:05:38;;;;;;;15.90;6.30;;;;;;;25.16;54.60;100525.40;106454;1270;22550;-60
2023/10/20 11:08:07;;;;;;;20.80;7.00;;;;;;;25.33;54.02;100528.05;106399;1276;25496;-61
2023/10/20 11:10:37;;;;;;;13.70;6.30;;;;;;;25.46;53.73;100528.86;106812;1268;22529;-60
2023/10/20 11:13:06;;;;;;;16.60;6.70;;;;;;;25.48;53.48;100534.68;106398;1272;24276;-61
2023/10/20 11:15:33;;;;;;;20.20;6.70;;;;;;;25.49;53.43;100536.16;106273;1276;25383;-61
2023/10/20 11:18:01;;;;;;;13.10;6.00;;;;;;;25.50;53.37;100533.42;106812;1259;22527;-60
2023/10/20 11:20:33;;;;;;;17.80;6.20;;;;;;;25.50;53.45;100533.80;106783;1272;25553;-60
2023/10/20 11:23:04;;;;;;;;;;;;;;;25.45;53.51;100540.48;106663;1273;22559;-61
2023/10/20 11:25:31;;;;;;;17.00;6.80;;;;;;;25.24;54.12;100539.80;106445;1272;25396;-60
2023/10/20 11:27:58;;;;;;;22.30;7.00;;;;;;;25.20;54.18;100538.05;106810;1260;25386;-61
2023/10/20 11:30:34;;;;;;;17.30;7.00;;;;;;;25.19;54.12;100539.77;106473;1261;25386;-61
2023/10/20 11:33:03;;;;;;;12.30;6.10;;;;;;;25.19;54.23;100540.22;106331;1272;25421;-60
2023/10/20 11:35:30;;;;;;;12.80;5.60;;;;;;;25.21;54.19;100546.51;106748;1260;22635;-62
2023/10/20 11:37:58;;;;;;;17.00;6.70;;;;;;;25.20;54.33;100541.20;106748;1272;25500;-60
2023/10/20 11:40:28;;;;;;;15.70;7.30;;;;;;;25.21;54.25;100543.31;106753;1272;24207;-60
2023/10/20 11:42:55;;;;;;;12.30;5.90;;;;;;;25.21;54.33;100548.05;106670;1272;25526;-61
2023/10/20 11:45:23;;;;;;;18.30;6.70;;;;;;;25.22;54.35;100547.30;106687;1261;24219;-60